createdAt,value
2017-09-21T00:00:16.951Z,0.00
2017-09-21T00:01:16.946Z,0.00
2017-09-21T00:02:16.943Z,0.00
2017-09-21T00:03:16.937Z,0.00
2017-09-21T00:04:16.933Z,0.00
2017-09-21T00:05:16.927Z,0.00
2017-09-21T00:06:16.924Z,0.00
2017-09-21T00:07:16.923Z,0.00
2017-09-21T00:08:16.918Z,0.00
2017-09-21T00:09:16.913Z,0.00
2017-09-21T00:10:16.909Z,0.00
2017-09-21T00:11:16.902Z,0.00
2017-09-21T00:12:16.898Z,0.00
2017-09-21T00:13:16.894Z,0.00
2017-09-21T00:14:16.890Z,0.00
2017-09-21T00:15:16.880Z,0.00
2017-09-21T00:16:16.874Z,0.00
2017-09-21T00:17:16.871Z,0.00
2017-09-21T00:18:16.866Z,0.00
2017-09-21T00:19:16.859Z,0.00
2017-09-21T00:20:16.855Z,0.00
2017-09-21T00:21:16.850Z,0.00
2017-09-21T00:22:16.846Z,0.00
2017-09-21T00:23:16.844Z,0.00
2017-09-21T00:24:16.841Z,0.00
2017-09-21T00:25:16.836Z,0.00
2017-09-21T00:26:16.831Z,0.00
2017-09-21T00:27:16.825Z,0.00
2017-09-21T00:28:16.822Z,0.00
2017-09-21T00:29:16.817Z,0.00
2017-09-21T00:30:16.812Z,0.00
2017-09-21T00:31:16.802Z,0.00
2017-09-21T00:32:16.796Z,0.00
2017-09-21T00:33:16.793Z,0.00
2017-09-21T00:34:16.788Z,0.00
2017-09-21T00:35:16.783Z,0.00
2017-09-21T00:36:16.778Z,0.00
2017-09-21T00:37:16.771Z,0.00
2017-09-21T00:38:16.767Z,0.00
2017-09-21T00:39:16.789Z,0.00
2017-09-21T00:40:16.760Z,0.00
2017-09-21T00:41:16.756Z,0.00
2017-09-21T00:42:16.752Z,0.00
2017-09-21T00:43:16.746Z,0.00
2017-09-21T00:44:16.741Z,0.00
2017-09-21T00:45:16.737Z,0.00
2017-09-21T00:46:16.756Z,0.00
2017-09-21T00:47:16.724Z,0.00
2017-09-21T00:48:16.717Z,0.00
2017-09-21T00:49:16.715Z,0.00
2017-09-21T00:50:16.706Z,0.00
2017-09-21T00:51:16.706Z,0.00
2017-09-21T00:52:16.701Z,0.00
2017-09-21T00:53:16.695Z,0.00
2017-09-21T00:54:16.692Z,0.00
2017-09-21T00:55:16.681Z,0.00
2017-09-21T00:56:16.680Z,0.00
2017-09-21T00:57:16.673Z,0.00
2017-09-21T00:58:16.669Z,0.00
2017-09-21T00:59:16.661Z,0.00
2017-09-21T01:00:16.656Z,0.00
2017-09-21T01:01:16.653Z,0.00
2017-09-21T01:02:16.648Z,0.00
2017-09-21T01:03:16.645Z,0.00
2017-09-21T01:04:16.641Z,0.00
2017-09-21T01:05:16.637Z,0.00
2017-09-21T01:06:16.632Z,0.00
2017-09-21T01:07:16.625Z,0.00
2017-09-21T01:08:16.622Z,0.00
2017-09-21T01:09:16.616Z,0.00
2017-09-21T01:10:16.612Z,0.00
2017-09-21T01:11:16.604Z,0.00
2017-09-21T01:12:16.596Z,0.00
2017-09-21T01:13:16.592Z,0.00
2017-09-21T01:14:16.586Z,0.00
2017-09-21T01:15:16.582Z,0.00
2017-09-21T01:16:16.578Z,0.00
2017-09-21T01:17:16.570Z,0.00
2017-09-21T01:18:16.567Z,0.00
2017-09-21T01:19:16.566Z,0.00
2017-09-21T01:20:16.559Z,0.00
2017-09-21T01:21:16.556Z,0.00
2017-09-21T01:22:16.550Z,0.00
2017-09-21T01:23:16.543Z,0.00
2017-09-21T01:24:16.541Z,0.00
2017-09-21T01:25:16.534Z,0.00
2017-09-21T01:26:16.531Z,0.00
2017-09-21T01:27:16.520Z,0.00
2017-09-21T01:28:16.517Z,0.00
2017-09-21T01:29:16.512Z,0.00
2017-09-21T01:30:16.506Z,0.00
2017-09-21T01:31:16.505Z,0.00
2017-09-21T01:32:16.496Z,0.00
2017-09-21T01:33:16.490Z,0.00
2017-09-21T01:34:16.486Z,0.00
2017-09-21T01:35:16.484Z,0.00
2017-09-21T01:36:16.479Z,0.00
2017-09-21T01:37:16.474Z,0.00
2017-09-21T01:38:16.468Z,0.00
2017-09-21T01:39:16.465Z,0.00
2017-09-21T01:40:16.462Z,0.00
2017-09-21T01:41:16.456Z,0.00
2017-09-21T01:42:16.450Z,0.00
2017-09-21T01:43:16.439Z,0.00
2017-09-21T01:44:16.434Z,0.00
2017-09-21T01:45:16.430Z,0.00
2017-09-21T01:46:16.424Z,0.00
2017-09-21T01:47:16.420Z,0.00
2017-09-21T01:48:16.415Z,0.00
2017-09-21T01:49:16.409Z,0.00
2017-09-21T01:50:16.403Z,0.00
2017-09-21T01:51:16.402Z,0.00
2017-09-21T01:52:16.401Z,0.00
2017-09-21T01:53:16.392Z,0.00
2017-09-21T01:54:16.387Z,0.00
2017-09-21T01:55:16.378Z,0.00
2017-09-21T01:56:16.372Z,0.00
2017-09-21T01:57:16.369Z,0.00
2017-09-21T01:58:16.363Z,0.00
2017-09-21T01:59:16.362Z,0.00
2017-09-21T02:00:16.381Z,0.00
2017-09-21T02:01:16.351Z,0.00
2017-09-21T02:02:16.348Z,0.00
2017-09-21T02:03:16.341Z,0.00
2017-09-21T02:04:16.336Z,0.00
2017-09-21T02:05:16.331Z,0.00
2017-09-21T02:06:16.326Z,0.00
2017-09-21T02:07:16.315Z,0.00
2017-09-21T02:08:16.312Z,0.00
2017-09-21T02:09:16.307Z,0.00
2017-09-21T02:10:16.302Z,0.00
2017-09-21T02:11:16.296Z,0.00
2017-09-21T02:12:16.291Z,0.00
2017-09-21T02:13:16.286Z,0.00
2017-09-21T02:14:16.282Z,0.00
2017-09-21T02:15:16.280Z,0.00
2017-09-21T02:16:16.274Z,0.00
2017-09-21T02:17:16.270Z,0.00
2017-09-21T02:18:16.266Z,0.00
2017-09-21T02:19:16.259Z,0.00
2017-09-21T02:20:16.256Z,0.00
2017-09-21T02:21:16.250Z,0.00
2017-09-21T02:22:16.246Z,0.00
2017-09-21T02:23:16.235Z,0.00
2017-09-21T02:24:16.231Z,0.00
2017-09-21T02:25:16.227Z,0.00
2017-09-21T02:26:16.220Z,0.00
2017-09-21T02:27:16.215Z,0.00
2017-09-21T02:28:16.212Z,0.00
2017-09-21T02:29:16.204Z,0.00
2017-09-21T02:30:16.201Z,0.00
2017-09-21T02:31:16.200Z,0.00
2017-09-21T02:32:16.195Z,0.00
2017-09-21T02:33:16.189Z,0.00
2017-09-21T02:34:16.185Z,0.00
2017-09-21T02:35:16.179Z,0.00
2017-09-21T02:36:16.175Z,0.00
2017-09-21T02:37:16.169Z,0.00
2017-09-21T02:38:16.164Z,0.00
2017-09-21T02:39:16.154Z,0.00
2017-09-21T02:40:16.149Z,0.00
2017-09-21T02:41:16.148Z,0.00
2017-09-21T02:42:16.143Z,0.00
2017-09-21T02:43:16.135Z,0.00
2017-09-21T02:44:16.130Z,0.00
2017-09-21T02:45:16.125Z,0.00
2017-09-21T02:46:16.120Z,0.00
2017-09-21T02:47:16.117Z,0.00
2017-09-21T02:48:16.115Z,0.00
2017-09-21T02:49:16.107Z,0.00
2017-09-21T02:50:16.103Z,0.00
2017-09-21T02:51:16.097Z,0.00
2017-09-21T02:52:16.099Z,0.00
2017-09-21T02:53:16.087Z,0.00
2017-09-21T02:54:16.082Z,0.00
2017-09-21T02:55:16.073Z,0.00
2017-09-21T02:56:16.066Z,0.00
2017-09-21T02:57:16.061Z,0.00
2017-09-21T02:58:16.057Z,0.00
2017-09-21T02:59:16.055Z,0.00
2017-09-21T03:00:16.050Z,0.00
2017-09-21T03:01:16.045Z,0.00
2017-09-21T03:02:16.039Z,0.00
2017-09-21T03:03:16.033Z,0.00
2017-09-21T03:04:16.029Z,0.00
2017-09-21T03:05:16.019Z,0.00
2017-09-21T03:06:16.014Z,0.00
2017-09-21T03:07:16.007Z,0.00
2017-09-21T03:08:16.002Z,0.00
2017-09-21T03:09:16.000Z,0.00
2017-09-21T03:10:15.993Z,0.00
2017-09-21T03:11:15.992Z,0.00
2017-09-21T03:12:15.986Z,0.00
2017-09-21T03:13:15.982Z,0.00
2017-09-21T03:14:15.976Z,0.00
2017-09-21T03:15:15.973Z,0.00
2017-09-21T03:16:15.965Z,0.00
2017-09-21T03:17:15.961Z,0.00
2017-09-21T03:18:15.956Z,0.00
2017-09-21T03:19:15.946Z,0.00
2017-09-21T03:20:15.940Z,0.00
2017-09-21T03:21:15.937Z,0.00
2017-09-21T03:22:15.929Z,0.00
2017-09-21T03:23:15.924Z,0.00
2017-09-21T03:24:15.918Z,0.00
2017-09-21T03:25:15.913Z,0.00
2017-09-21T03:26:15.912Z,0.00
2017-09-21T03:27:15.906Z,0.00
2017-09-21T03:28:15.901Z,0.00
2017-09-21T03:29:15.895Z,0.00
2017-09-21T03:30:15.893Z,0.00
2017-09-21T03:31:15.887Z,0.00
2017-09-21T03:32:15.878Z,0.00
2017-09-21T03:33:15.874Z,0.00
2017-09-21T03:34:15.874Z,0.00
2017-09-21T03:35:15.858Z,0.00
2017-09-21T03:36:15.854Z,0.00
2017-09-21T03:37:15.849Z,0.00
2017-09-21T03:38:15.842Z,0.00
2017-09-21T03:39:15.838Z,0.00
2017-09-21T03:40:15.832Z,0.00
2017-09-21T03:41:15.826Z,0.00
2017-09-21T03:42:15.822Z,0.00
2017-09-21T03:43:15.819Z,0.00
2017-09-21T03:44:15.843Z,0.00
2017-09-21T03:45:15.859Z,0.00
2017-09-21T03:46:15.861Z,0.00
2017-09-21T03:47:15.828Z,0.00
2017-09-21T03:48:15.792Z,0.00
2017-09-21T03:49:15.789Z,0.00
2017-09-21T03:50:15.783Z,0.00
2017-09-21T03:51:15.773Z,0.00
2017-09-21T03:52:15.769Z,0.00
2017-09-21T03:53:15.762Z,0.00
2017-09-21T03:54:15.763Z,0.00
2017-09-21T03:55:15.752Z,0.00
2017-09-21T03:56:15.747Z,0.00
2017-09-21T03:57:15.742Z,0.00
2017-09-21T03:58:15.736Z,0.00
2017-09-21T03:59:15.734Z,0.00
2017-09-21T04:00:15.730Z,0.00
2017-09-21T04:01:15.724Z,0.00
2017-09-21T04:02:15.720Z,0.00
2017-09-21T04:03:15.709Z,0.00
2017-09-21T04:04:15.706Z,0.00
2017-09-21T04:05:15.699Z,0.00
2017-09-21T04:06:15.694Z,0.00
2017-09-21T04:07:15.693Z,0.00
2017-09-21T04:08:15.687Z,0.00
2017-09-21T04:09:15.682Z,0.00
2017-09-21T04:10:15.678Z,0.00
2017-09-21T04:11:15.672Z,0.00
2017-09-21T04:12:15.666Z,0.00
2017-09-21T04:13:15.661Z,0.00
2017-09-21T04:14:15.657Z,0.00
2017-09-21T04:15:15.645Z,0.00
2017-09-21T04:16:15.642Z,0.00
2017-09-21T04:17:15.637Z,0.00
2017-09-21T04:18:15.630Z,0.00
2017-09-21T04:19:15.626Z,0.00
2017-09-21T04:20:15.621Z,0.00
2017-09-21T04:21:15.616Z,0.00
2017-09-21T04:22:15.611Z,0.00
2017-09-21T04:23:15.608Z,0.00
2017-09-21T04:24:15.605Z,0.00
2017-09-21T04:25:15.599Z,0.00
2017-09-21T04:26:15.594Z,0.00
2017-09-21T04:27:15.587Z,0.00
2017-09-21T04:28:15.581Z,0.00
2017-09-21T04:29:15.578Z,0.00
2017-09-21T04:30:15.573Z,0.00
2017-09-21T04:31:15.561Z,0.00
2017-09-21T04:32:15.558Z,0.00
2017-09-21T04:33:15.552Z,0.00
2017-09-21T04:34:15.547Z,0.00
2017-09-21T04:35:15.542Z,0.00
2017-09-21T04:36:15.535Z,0.00
2017-09-21T04:37:15.531Z,0.00
2017-09-21T04:38:15.526Z,0.00
2017-09-21T04:39:15.525Z,0.00
2017-09-21T04:40:15.518Z,0.00
2017-09-21T04:41:15.513Z,0.00
2017-09-21T04:42:15.508Z,0.00
2017-09-21T04:43:15.503Z,0.00
2017-09-21T04:44:15.497Z,0.00
2017-09-21T04:45:15.493Z,4.00
2017-09-21T04:46:15.488Z,4.00
2017-09-21T04:47:15.502Z,0.00
2017-09-21T04:48:15.473Z,4.00
2017-09-21T04:49:15.467Z,4.00
2017-09-21T04:50:15.463Z,4.00
2017-09-21T04:51:15.455Z,8.00
2017-09-21T04:52:15.451Z,8.00
2017-09-21T04:53:15.450Z,4.00
2017-09-21T04:54:15.442Z,8.00
2017-09-21T04:55:15.439Z,8.00
2017-09-21T04:56:15.435Z,12.00
2017-09-21T04:57:15.430Z,16.00
2017-09-21T04:58:15.425Z,20.00
2017-09-21T04:59:15.419Z,24.00
2017-09-21T05:00:15.414Z,24.00
2017-09-21T05:01:15.409Z,32.00
2017-09-21T05:02:15.404Z,36.00
2017-09-21T05:03:15.393Z,40.00
2017-09-21T05:04:15.389Z,52.00
2017-09-21T05:05:15.383Z,60.00
2017-09-21T05:06:15.385Z,64.00
2017-09-21T05:07:15.376Z,76.00
2017-09-21T05:08:15.370Z,84.00
2017-09-21T05:09:15.366Z,100.00
2017-09-21T05:10:15.361Z,108.00
2017-09-21T05:11:15.352Z,128.00
2017-09-21T05:12:15.345Z,140.00
2017-09-21T05:13:15.373Z,160.00
2017-09-21T05:14:15.335Z,176.00
2017-09-21T05:15:15.329Z,192.00
2017-09-21T05:16:15.324Z,216.00
2017-09-21T05:17:15.318Z,236.00
2017-09-21T05:18:15.314Z,260.00
2017-09-21T05:19:15.312Z,280.00
2017-09-21T05:20:15.306Z,308.00
2017-09-21T05:21:15.302Z,340.00
2017-09-21T05:22:15.298Z,368.00
2017-09-21T05:23:15.292Z,396.00
2017-09-21T05:24:15.286Z,428.00
2017-09-21T05:25:15.281Z,464.00
2017-09-21T05:26:15.275Z,500.00
2017-09-21T05:27:15.266Z,536.00
2017-09-21T05:28:15.261Z,576.00
2017-09-21T05:29:15.254Z,616.00
2017-09-21T05:30:15.258Z,660.00
2017-09-21T05:31:15.243Z,704.00
2017-09-21T05:32:15.240Z,752.00
2017-09-21T05:33:15.234Z,796.00
2017-09-21T05:34:15.230Z,848.00
2017-09-21T05:35:15.227Z,900.00
2017-09-21T05:36:15.221Z,956.00
2017-09-21T05:37:15.218Z,1012.00
2017-09-21T05:38:15.214Z,1068.00
2017-09-21T05:39:15.207Z,1132.00
2017-09-21T05:40:15.202Z,1204.00
2017-09-21T05:41:15.196Z,1296.00
2017-09-21T05:42:15.192Z,1412.00
2017-09-21T05:43:15.183Z,1520.00
2017-09-21T05:44:15.178Z,1708.00
2017-09-21T05:45:15.176Z,1960.00
2017-09-21T05:46:15.167Z,2220.00
2017-09-21T05:47:15.163Z,2476.00
2017-09-21T05:48:15.158Z,2724.00
2017-09-21T05:49:15.152Z,2944.00
2017-09-21T05:50:15.148Z,3184.00
2017-09-21T05:51:15.151Z,3404.00
2017-09-21T05:52:15.141Z,3580.00
2017-09-21T05:53:15.137Z,3808.00
2017-09-21T05:54:15.136Z,4120.00
2017-09-21T05:55:15.128Z,4400.00
2017-09-21T05:56:15.124Z,4708.00
2017-09-21T05:57:15.119Z,4964.00
2017-09-21T05:58:15.116Z,5276.00
2017-09-21T05:59:15.106Z,5612.00
2017-09-21T06:00:15.103Z,5908.00
2017-09-21T06:01:15.100Z,6188.00
2017-09-21T06:02:15.098Z,6364.00
2017-09-21T06:03:15.093Z,6648.00
2017-09-21T06:04:15.091Z,6952.00
2017-09-21T06:05:15.087Z,7244.00
2017-09-21T06:06:15.085Z,7572.00
2017-09-21T06:07:15.086Z,7940.00
2017-09-21T06:08:15.086Z,8072.00
2017-09-21T06:09:15.082Z,8396.00
2017-09-21T06:10:15.079Z,8824.00
2017-09-21T06:11:15.076Z,9248.00
2017-09-21T06:12:15.075Z,9580.00
2017-09-21T06:13:15.073Z,9804.00
2017-09-21T06:14:15.073Z,10068.00
2017-09-21T06:15:15.066Z,10256.00
2017-09-21T06:16:15.065Z,10452.00
2017-09-21T06:17:15.065Z,10704.00
2017-09-21T06:18:15.062Z,11048.00
2017-09-21T06:19:15.062Z,11260.00
2017-09-21T06:20:15.062Z,11368.00
2017-09-21T06:21:15.071Z,11796.00
2017-09-21T06:22:15.062Z,12192.00
2017-09-21T06:23:15.065Z,12448.00
2017-09-21T06:24:15.064Z,12864.00
2017-09-21T06:25:15.066Z,13280.00
2017-09-21T06:26:15.066Z,13664.00
2017-09-21T06:27:15.067Z,14016.00
2017-09-21T06:28:15.066Z,14496.00
2017-09-21T06:29:15.066Z,14784.00
2017-09-21T06:30:15.068Z,15104.00
2017-09-21T06:31:15.064Z,15328.00
2017-09-21T06:32:15.066Z,15552.00
2017-09-21T06:33:15.066Z,15936.00
2017-09-21T06:34:15.068Z,16256.00
2017-09-21T06:35:15.070Z,16384.00
2017-09-21T06:36:15.072Z,16800.00
2017-09-21T06:37:15.074Z,17248.00
2017-09-21T06:38:15.093Z,17472.00
2017-09-21T06:39:15.080Z,17664.00
2017-09-21T06:40:15.088Z,18016.00
2017-09-21T06:41:15.086Z,18208.00
2017-09-21T06:42:15.088Z,18560.00
2017-09-21T06:43:15.091Z,18880.00
2017-09-21T06:44:15.093Z,19168.00
2017-09-21T06:45:15.096Z,19232.00
2017-09-21T06:46:15.098Z,19552.00
2017-09-21T06:47:15.096Z,19744.00
2017-09-21T06:48:15.100Z,19968.00
2017-09-21T06:49:15.102Z,20256.00
2017-09-21T06:50:15.107Z,20416.00
2017-09-21T06:51:15.110Z,20640.00
2017-09-21T06:52:15.114Z,20928.00
2017-09-21T06:53:15.117Z,21120.00
2017-09-21T06:54:15.120Z,21344.00
2017-09-21T06:55:15.129Z,21664.00
2017-09-21T06:56:15.133Z,21888.00
2017-09-21T06:57:15.135Z,22144.00
2017-09-21T06:58:15.142Z,22432.00
2017-09-21T06:59:15.144Z,22560.00
2017-09-21T07:00:15.151Z,22880.00
2017-09-21T07:01:15.154Z,23072.00
2017-09-21T07:02:15.158Z,23296.00
2017-09-21T07:03:15.157Z,23744.00
2017-09-21T07:04:15.163Z,24224.00
2017-09-21T07:05:15.168Z,24768.00
2017-09-21T07:06:15.173Z,25184.00
2017-09-21T07:07:15.177Z,25600.00
2017-09-21T07:08:15.182Z,24832.00
2017-09-21T07:09:15.187Z,24608.00
2017-09-21T07:10:15.193Z,23648.00
2017-09-21T07:11:15.203Z,23744.00
2017-09-21T07:12:15.206Z,20768.00
2017-09-21T07:13:15.212Z,19840.00
2017-09-21T07:14:15.218Z,15904.00
2017-09-21T07:15:15.219Z,15776.00
2017-09-21T07:16:15.226Z,13796.00
2017-09-21T07:17:15.230Z,13780.00
2017-09-21T07:18:15.236Z,13976.00
2017-09-21T07:19:15.246Z,13364.00
2017-09-21T07:20:15.253Z,13052.00
2017-09-21T07:21:15.256Z,12224.00
2017-09-21T07:22:15.262Z,12356.00
2017-09-21T07:23:15.268Z,12928.00
2017-09-21T07:24:15.273Z,14592.00
2017-09-21T07:25:15.277Z,15468.00
2017-09-21T07:26:15.283Z,16128.00
2017-09-21T07:27:15.283Z,17440.00
2017-09-21T07:28:15.286Z,15808.00
2017-09-21T07:29:15.292Z,14844.00
2017-09-21T07:30:15.295Z,13732.00
2017-09-21T07:31:15.299Z,13300.00
2017-09-21T07:32:15.304Z,13444.00
2017-09-21T07:33:15.308Z,13696.00
2017-09-21T07:34:15.312Z,14500.00
2017-09-21T07:35:15.320Z,16448.00
2017-09-21T07:36:15.325Z,16448.00
2017-09-21T07:37:15.325Z,17184.00
2017-09-21T07:38:15.330Z,22208.00
2017-09-21T07:39:15.333Z,17728.00
2017-09-21T07:40:15.336Z,18336.00
2017-09-21T07:41:15.341Z,16384.00
2017-09-21T07:42:15.371Z,16832.00
2017-09-21T07:43:15.340Z,16832.00
2017-09-21T07:44:15.345Z,16000.00
2017-09-21T07:45:15.347Z,16960.00
2017-09-21T07:46:15.352Z,16736.00
2017-09-21T07:47:15.353Z,16160.00
2017-09-21T07:48:15.358Z,16544.00
2017-09-21T07:49:15.360Z,17216.00
2017-09-21T07:50:15.362Z,18624.00
2017-09-21T07:51:15.369Z,19264.00
2017-09-21T07:52:15.373Z,27744.00
2017-09-21T07:53:15.377Z,20448.00
2017-09-21T07:54:15.380Z,31712.00
2017-09-21T07:55:15.382Z,24224.00
2017-09-21T07:56:15.385Z,15976.00
2017-09-21T07:57:15.388Z,26080.00
2017-09-21T07:58:15.393Z,35264.00
2017-09-21T07:59:15.391Z,22624.00
2017-09-21T08:00:15.396Z,29600.00
2017-09-21T08:01:15.399Z,34656.00
2017-09-21T08:02:15.407Z,34752.00
2017-09-21T08:03:15.406Z,34112.00
2017-09-21T08:04:15.421Z,23808.00
2017-09-21T08:05:15.414Z,34528.00
2017-09-21T08:06:15.426Z,31904.00
2017-09-21T08:07:15.430Z,35520.00
2017-09-21T08:08:15.434Z,37184.00
2017-09-21T08:09:15.440Z,39808.00
2017-09-21T08:10:15.446Z,42720.00
2017-09-21T08:11:15.452Z,45984.00
2017-09-21T08:12:15.458Z,48032.00
2017-09-21T08:13:15.465Z,47296.00
2017-09-21T08:14:15.471Z,47392.00
2017-09-21T08:15:15.473Z,47168.00
2017-09-21T08:16:15.479Z,46560.00
2017-09-21T08:17:15.488Z,48160.00
2017-09-21T08:18:15.495Z,49120.00
2017-09-21T08:19:15.507Z,49376.00
2017-09-21T08:20:15.514Z,51104.00
2017-09-21T08:21:15.520Z,41824.00
2017-09-21T08:22:15.529Z,43872.00
2017-09-21T08:23:15.533Z,46848.00
2017-09-21T08:24:15.542Z,48352.00
2017-09-21T08:25:15.556Z,48448.00
2017-09-21T08:26:15.559Z,47488.00
2017-09-21T08:27:15.567Z,43808.00
2017-09-21T08:28:15.575Z,39616.00
2017-09-21T08:29:15.587Z,36640.00
2017-09-21T08:30:15.594Z,34304.00
2017-09-21T08:31:15.606Z,31744.00
2017-09-21T08:32:15.617Z,29696.00
2017-09-21T08:33:15.626Z,28032.00
2017-09-21T08:34:15.635Z,27840.00
2017-09-21T08:35:15.645Z,28192.00
2017-09-21T08:36:15.656Z,28192.00
2017-09-21T08:37:15.667Z,30304.00
2017-09-21T08:38:15.678Z,32512.00
2017-09-21T08:39:15.684Z,34176.00
2017-09-21T08:40:15.694Z,37344.00
2017-09-21T08:41:15.705Z,40256.00
2017-09-21T08:42:15.716Z,41248.00
2017-09-21T08:43:15.726Z,41024.00
2017-09-21T08:44:15.738Z,41856.00
2017-09-21T08:45:15.749Z,44128.00
2017-09-21T08:46:15.763Z,46080.00
2017-09-21T08:47:15.777Z,48000.00
2017-09-21T08:48:15.788Z,50080.00
2017-09-21T08:49:15.801Z,46784.00
2017-09-21T08:50:15.813Z,40576.00
2017-09-21T08:51:15.824Z,37440.00
2017-09-21T08:52:15.836Z,35328.00
2017-09-21T08:53:15.850Z,32896.00
2017-09-21T08:54:15.862Z,30816.00
2017-09-21T08:55:15.870Z,29312.00
2017-09-21T08:56:15.882Z,27360.00
2017-09-21T08:57:15.901Z,26336.00
2017-09-21T08:58:15.910Z,26400.00
2017-09-21T08:59:15.922Z,25952.00
2017-09-21T09:00:15.934Z,24416.00
2017-09-21T09:01:15.948Z,24384.00
2017-09-21T09:02:15.961Z,24448.00
2017-09-21T09:03:15.977Z,24480.00
2017-09-21T09:04:15.991Z,24416.00
2017-09-21T09:05:16.005Z,24480.00
2017-09-21T09:06:16.020Z,24704.00
2017-09-21T09:07:16.032Z,24224.00
2017-09-21T09:08:16.045Z,24192.00
2017-09-21T09:09:16.061Z,24704.00
2017-09-21T09:10:16.072Z,24128.00
2017-09-21T09:11:16.083Z,23808.00
2017-09-21T09:12:16.098Z,23136.00
2017-09-21T09:13:16.112Z,23392.00
2017-09-21T09:14:16.127Z,23808.00
2017-09-21T09:15:16.141Z,24672.00
2017-09-21T09:16:16.154Z,24576.00
2017-09-21T09:17:16.170Z,23936.00
2017-09-21T09:18:16.185Z,23808.00
2017-09-21T09:19:16.203Z,24192.00
2017-09-21T09:20:16.219Z,23904.00
2017-09-21T09:21:16.232Z,22848.00
2017-09-21T09:22:16.249Z,23616.00
2017-09-21T09:23:16.265Z,22944.00
2017-09-21T09:24:16.272Z,23008.00
2017-09-21T09:25:16.288Z,23648.00
2017-09-21T09:26:16.304Z,23104.00
2017-09-21T09:27:16.322Z,23680.00
2017-09-21T09:28:16.335Z,23648.00
2017-09-21T09:29:16.352Z,23328.00
2017-09-21T09:30:16.364Z,23936.00
2017-09-21T09:31:16.377Z,23904.00
2017-09-21T09:32:16.392Z,24896.00
2017-09-21T09:33:16.408Z,25184.00
2017-09-21T09:34:16.423Z,24800.00
2017-09-21T09:35:16.432Z,23520.00
2017-09-21T09:36:16.450Z,23584.00
2017-09-21T09:37:16.461Z,23168.00
2017-09-21T09:38:16.476Z,23392.00
2017-09-21T09:39:16.489Z,23680.00
2017-09-21T09:40:16.506Z,22912.00
2017-09-21T09:41:16.519Z,22912.00
2017-09-21T09:42:16.535Z,23296.00
2017-09-21T09:43:16.552Z,23968.00
2017-09-21T09:44:16.566Z,23936.00
2017-09-21T09:45:16.580Z,24416.00
2017-09-21T09:46:16.596Z,25216.00
2017-09-21T09:47:16.609Z,25088.00
2017-09-21T09:48:16.623Z,25344.00
2017-09-21T09:49:16.639Z,25760.00
2017-09-21T09:50:16.653Z,24864.00
2017-09-21T09:51:16.663Z,24384.00
2017-09-21T09:52:16.678Z,25088.00
2017-09-21T09:53:16.693Z,25440.00
2017-09-21T09:54:16.708Z,26368.00
2017-09-21T09:55:16.731Z,26240.00
2017-09-21T09:56:16.737Z,26816.00
2017-09-21T09:57:16.750Z,27040.00
2017-09-21T09:58:16.766Z,27520.00
2017-09-21T09:59:16.789Z,27168.00
2017-09-21T10:00:16.805Z,27616.00
2017-09-21T10:01:16.814Z,27488.00
2017-09-21T10:02:16.827Z,26880.00
2017-09-21T10:03:16.842Z,27328.00
2017-09-21T10:04:16.861Z,27712.00
2017-09-21T10:05:16.877Z,27456.00
2017-09-21T10:06:16.884Z,26976.00
2017-09-21T10:07:16.897Z,26688.00
2017-09-21T10:08:16.909Z,26304.00
2017-09-21T10:09:16.926Z,26144.00
2017-09-21T10:10:16.941Z,26368.00
2017-09-21T10:11:16.954Z,26080.00
2017-09-21T10:12:16.969Z,26208.00
2017-09-21T10:13:16.985Z,24960.00
2017-09-21T10:14:16.999Z,26304.00
2017-09-21T10:15:17.016Z,25664.00
2017-09-21T10:16:17.030Z,25952.00
2017-09-21T10:17:17.047Z,26240.00
2017-09-21T10:18:17.061Z,26208.00
2017-09-21T10:19:17.076Z,27136.00
2017-09-21T10:20:17.089Z,25760.00
2017-09-21T10:21:17.133Z,26624.00
2017-09-21T10:22:17.118Z,28064.00
2017-09-21T10:23:17.128Z,27488.00
2017-09-21T10:24:17.142Z,27424.00
2017-09-21T10:25:17.156Z,27104.00
2017-09-21T10:26:17.169Z,26624.00
2017-09-21T10:27:17.188Z,25472.00
2017-09-21T10:28:17.203Z,26304.00
2017-09-21T10:29:17.217Z,26272.00
2017-09-21T10:30:17.230Z,26304.00
2017-09-21T10:31:17.240Z,25760.00
2017-09-21T10:32:17.254Z,25344.00
2017-09-21T10:33:17.267Z,24832.00
2017-09-21T10:34:17.282Z,23840.00
2017-09-21T10:35:17.295Z,23552.00
2017-09-21T10:36:17.308Z,24320.00
2017-09-21T10:37:17.323Z,25120.00
2017-09-21T10:38:17.337Z,24416.00
2017-09-21T10:39:17.355Z,25344.00
2017-09-21T10:40:17.370Z,25056.00
2017-09-21T10:41:17.383Z,25952.00
2017-09-21T10:42:17.397Z,26240.00
2017-09-21T10:43:17.408Z,25824.00
2017-09-21T10:44:17.423Z,25728.00
2017-09-21T10:45:17.437Z,24640.00
2017-09-21T10:46:17.450Z,25664.00
2017-09-21T10:47:17.459Z,25600.00
2017-09-21T10:48:17.474Z,25344.00
2017-09-21T10:49:17.486Z,25568.00
2017-09-21T10:50:17.501Z,25760.00
2017-09-21T10:51:17.515Z,24544.00
2017-09-21T10:52:17.527Z,24384.00
2017-09-21T10:53:17.541Z,24800.00
2017-09-21T10:54:17.554Z,25216.00
2017-09-21T10:55:17.578Z,24960.00
2017-09-21T10:56:17.584Z,23936.00
2017-09-21T10:57:17.597Z,24096.00
2017-09-21T10:58:17.610Z,24608.00
2017-09-21T10:59:17.623Z,24672.00
2017-09-21T11:00:17.636Z,25248.00
2017-09-21T11:01:17.648Z,26048.00
2017-09-21T11:02:17.662Z,26528.00
2017-09-21T11:03:17.669Z,26144.00
2017-09-21T11:04:17.680Z,26144.00
2017-09-21T11:05:17.695Z,25920.00
2017-09-21T11:06:17.707Z,25760.00
2017-09-21T11:07:17.720Z,25760.00
2017-09-21T11:08:17.733Z,24992.00
2017-09-21T11:09:17.749Z,23904.00
2017-09-21T11:10:17.759Z,23808.00
2017-09-21T11:11:17.774Z,23936.00
2017-09-21T11:12:17.787Z,24864.00
2017-09-21T11:13:17.802Z,24800.00
2017-09-21T11:14:17.810Z,27232.00
2017-09-21T11:15:17.823Z,27296.00
2017-09-21T11:16:17.836Z,25344.00
2017-09-21T11:17:17.848Z,23424.00
2017-09-21T11:18:17.881Z,16448.00
2017-09-21T11:19:17.866Z,10340.00
2017-09-21T11:20:17.879Z,8884.00
2017-09-21T11:21:17.891Z,8408.00
2017-09-21T11:22:17.903Z,8184.00
2017-09-21T11:23:17.914Z,7996.00
2017-09-21T11:24:17.924Z,7768.00
2017-09-21T11:25:17.935Z,7688.00
2017-09-21T11:26:17.945Z,7664.00
2017-09-21T11:27:17.957Z,7628.00
2017-09-21T11:28:17.970Z,7572.00
2017-09-21T11:29:17.979Z,7572.00
2017-09-21T11:30:17.989Z,7516.00
2017-09-21T11:31:17.995Z,7460.00
2017-09-21T11:32:18.000Z,7392.00
2017-09-21T11:33:18.009Z,7348.00
2017-09-21T11:34:18.016Z,7284.00
2017-09-21T11:35:18.028Z,7280.00
2017-09-21T11:36:18.037Z,7236.00
2017-09-21T11:37:18.049Z,7184.00
2017-09-21T11:38:18.051Z,7084.00
2017-09-21T11:39:18.058Z,7128.00
2017-09-21T11:40:18.065Z,7096.00
2017-09-21T11:41:18.071Z,7076.00
2017-09-21T11:42:18.079Z,7044.00
2017-09-21T11:43:18.081Z,7000.00
2017-09-21T11:44:18.087Z,7008.00
2017-09-21T11:45:18.093Z,6976.00
2017-09-21T11:46:18.099Z,6944.00
2017-09-21T11:47:18.108Z,6956.00
2017-09-21T11:48:18.111Z,6884.00
2017-09-21T11:49:18.114Z,6920.00
2017-09-21T11:50:18.121Z,6804.00
2017-09-21T11:51:18.129Z,6736.00
2017-09-21T11:52:18.136Z,6848.00
2017-09-21T11:53:18.141Z,6856.00
2017-09-21T11:54:18.168Z,6864.00
2017-09-21T11:55:18.150Z,6832.00
2017-09-21T11:56:18.156Z,6800.00
2017-09-21T11:57:18.161Z,6760.00
2017-09-21T11:58:18.166Z,6780.00
2017-09-21T11:59:18.167Z,6788.00
2017-09-21T12:00:18.169Z,6696.00
2017-09-21T12:01:18.175Z,6576.00
2017-09-21T12:02:18.181Z,6548.00
2017-09-21T12:03:18.183Z,6528.00
2017-09-21T12:04:18.188Z,6484.00
2017-09-21T12:05:18.194Z,6484.00
2017-09-21T12:06:18.199Z,6456.00
2017-09-21T12:07:18.205Z,6412.00
2017-09-21T12:08:18.209Z,6368.00
2017-09-21T12:09:18.215Z,6356.00
2017-09-21T12:10:18.219Z,6300.00
2017-09-21T12:11:18.222Z,6256.00
2017-09-21T12:12:18.228Z,6176.00
2017-09-21T12:13:18.231Z,6056.00
2017-09-21T12:14:18.236Z,5952.00
2017-09-21T12:15:18.236Z,5888.00
2017-09-21T12:16:18.239Z,5788.00
2017-09-21T12:17:18.245Z,5724.00
2017-09-21T12:18:18.248Z,5712.00
2017-09-21T12:19:18.253Z,5680.00
2017-09-21T12:20:18.259Z,5660.00
2017-09-21T12:21:18.259Z,5604.00
2017-09-21T12:22:18.264Z,5532.00
2017-09-21T12:23:18.271Z,5516.00
2017-09-21T12:24:18.275Z,5500.00
2017-09-21T12:25:18.279Z,5452.00